Time;durP1;ratioP1;P1;durP2;ratioP2;P2;SDS_P1;SDS_P2;PMS_P1;PMS_P2;Temp;Humidity;BMP_temperature;BMP_pressure;BME280_temperature;BME280_humidity;BME280_pressure;Samples;Min_cycle;Max_cycle;Signal;HPM_P1;HPM_P2
2022/11/04 00:01:41;;;;;;;31.98;17.10;;;;;;;12.97;78.05;99747.19;4431725;32;33579;-76
2022/11/04 00:04:13;;;;;;;31.75;17.67;;;;;;;13.22;77.11;99740.22;4434766;32;33874;-77
2022/11/04 00:06:42;;;;;;;34.70;17.80;;;;;;;12.65;79.09;99723.56;4431027;32;33713;-76
2022/11/04 00:09:19;;;;;;;31.30;17.33;;;;;;;12.38;80.55;99723.44;4417522;32;34563;-77
2022/11/04 00:14:39;;;;;;;34.30;18.05;;;;;;;12.58;79.96;99713.78;4430046;32;32773;-77
2022/11/04 00:17:18;;;;;;;35.58;18.55;;;;;;;12.76;79.31;99721.31;4416746;32;33182;-78
2022/11/04 00:33:57;;;;;;;36.80;17.90;;;;;;;12.53;80.31;99698.00;4437577;32;32935;-77
2022/11/04 00:36:25;;;;;;;33.15;16.60;;;;;;;12.59;80.20;99692.12;4428512;32;34677;-77
2022/11/04 00:38:55;;;;;;;32.92;17.65;;;;;;;12.47;80.89;99686.53;4437172;32;33982;-76
2022/11/04 00:41:26;;;;;;;35.15;18.60;;;;;;;12.38;81.17;99687.97;4433641;32;33319;-77
2022/11/04 00:44:04;;;;;;;38.50;18.45;;;;;;;12.65;80.56;99676.78;4438639;32;34421;-78
2022/11/04 00:46:35;;;;;;;35.95;17.40;;;;;;;12.34;81.73;99675.72;4418399;32;34587;-78
2022/11/04 00:49:02;;;;;;;36.97;18.85;;;;;;;12.11;82.78;99667.09;4432114;32;34555;-79
2022/11/04 00:51:31;;;;;;;32.97;17.37;;;;;;;12.07;83.27;99656.53;4435388;32;34089;-78
2022/11/04 00:54:01;;;;;;;31.77;17.02;;;;;;;12.33;82.16;99658.34;4432403;32;29758;-79
2022/11/04 00:56:36;;;;;;;34.85;17.95;;;;;;;12.24;82.37;99668.41;4428076;32;32064;-79
2022/11/04 00:59:06;;;;;;;34.05;17.02;;;;;;;12.39;81.63;99668.06;4428460;32;33877;-78
2022/11/04 01:01:41;;;;;;;36.85;17.65;;;;;;;12.57;81.38;99667.81;4435922;32;34751;-79
2022/11/04 01:04:10;;;;;;;32.38;17.05;;;;;;;13.01;79.19;99665.84;4434287;32;33603;-77
2022/11/04 01:06:39;;;;;;;32.45;16.52;;;;;;;12.53;81.03;99669.44;4435627;32;33590;-77
2022/11/04 01:09:11;;;;;;;31.90;16.42;;;;;;;12.37;81.79;99670.59;4435987;32;33898;-78
2022/11/04 01:11:40;;;;;;;33.60;17.17;;;;;;;12.64;81.44;99661.12;4435625;32;34069;-76
2022/11/04 01:14:11;;;;;;;34.78;17.15;;;;;;;12.44;81.55;99670.81;4431198;32;33596;-78
2022/11/04 01:16:40;;;;;;;33.50;16.60;;;;;;;12.82;79.93;99663.47;4438299;32;33665;-77
2022/11/04 01:19:10;;;;;;;35.88;18.52;;;;;;;12.69;80.39;99664.75;4436597;32;33989;-77
2022/11/04 01:21:38;;;;;;;31.98;15.70;;;;;;;12.58;81.05;99661.81;4435922;32;34659;-79
2022/11/04 01:24:06;;;;;;;32.60;16.98;;;;;;;12.83;79.92;99649.66;4432995;32;31481;-77
2022/11/04 01:26:35;;;;;;;37.15;17.02;;;;;;;12.58;81.51;99646.22;4432013;32;33648;-77
2022/11/04 01:29:04;;;;;;;34.40;17.67;;;;;;;12.47;81.84;99644.97;4442412;32;35561;-77
2022/11/04 01:31:33;;;;;;;35.92;17.58;;;;;;;12.42;82.08;99649.09;4432362;32;34046;-79
2022/11/04 01:34:02;;;;;;;32.92;17.20;;;;;;;12.69;80.77;99642.28;4439914;32;33730;-79
2022/11/04 01:36:30;;;;;;;31.92;17.40;;;;;;;12.77;80.39;99651.22;4434506;32;33519;-80
2022/11/04 01:38:58;;;;;;;34.50;17.02;;;;;;;12.86;80.03;99640.22;4436006;32;34415;-77
2022/11/04 01:41:30;;;;;;;37.78;18.25;;;;;;;13.10;79.28;99634.94;4437260;32;34158;-77
2022/11/04 01:44:00;;;;;;;31.08;16.90;;;;;;;12.95;79.85;99626.66;4440546;32;32428;-79
2022/11/04 01:46:30;;;;;;;30.27;16.70;;;;;;;12.98;79.18;99603.34;4444346;32;33954;-79
2022/11/04 01:49:25;;;;;;;34.40;17.10;;;;;;;12.85;80.04;99596.00;4444132;32;33916;-78
2022/11/04 01:52:09;;;;;;;32.65;16.10;;;;;;;12.88;79.91;99601.28;4392111;32;33376;-79
2022/11/04 01:54:37;;;;;;;34.03;15.98;;;;;;;13.15;78.62;99596.97;4448492;32;34255;-79
2022/11/04 01:57:13;;;;;;;33.60;16.92;;;;;;;13.43;77.90;99596.97;4436648;32;34643;-76
2022/11/04 01:59:42;;;;;;;30.77;16.45;;;;;;;13.08;78.79;99583.72;4441159;32;34623;-77
2022/11/04 02:02:14;;;;;;;35.53;17.58;;;;;;;12.95;79.80;99587.66;4437894;32;33806;-77
2022/11/04 02:04:45;;;;;;;33.80;17.85;;;;;;;12.76;80.63;99574.06;4443102;32;33015;-79
2022/11/04 02:07:14;;;;;;;38.30;17.77;;;;;;;12.99;79.53;99573.91;4446628;32;33960;-78
2022/11/04 02:09:43;;;;;;;34.58;17.23;;;;;;;13.24;78.63;99577.28;4437858;32;33043;-77
2022/11/04 02:15:03;;;;;;;37.28;17.62;;;;;;;12.88;80.56;99567.47;4437482;32;33543;-76
2022/11/04 02:18:01;;;;;;;36.72;18.77;;;;;;;12.51;82.47;99563.69;4446574;32;34519;-77
2022/11/04 02:20:47;;;;;;;38.20;18.55;;;;;;;12.54;83.17;99558.63;4444765;32;33848;-78
2022/11/04 02:23:42;;;;;;;33.45;16.90;;;;;;;12.39;83.37;99558.97;4440145;32;34800;-76
2022/11/04 02:26:17;;;;;;;39.53;18.77;;;;;;;12.20;84.50;99547.94;4435336;32;31746;-77
2022/11/04 02:29:07;;;;;;;37.85;18.17;;;;;;;12.25;84.70;99545.53;4431912;32;32598;-78
2022/11/04 02:31:42;;;;;;;44.15;20.00;;;;;;;12.68;82.80;99546.94;4435108;32;33657;-77
2022/11/04 02:34:30;;;;;;;;;;;;;;;12.58;82.97;99545.75;4428496;32;33904;-79
2022/11/04 02:37:22;;;;;;;41.97;19.25;;;;;;;12.03;85.78;99537.81;4429585;32;33518;-77
2022/11/04 02:40:23;;;;;;;41.03;20.40;;;;;;;11.95;86.43;99525.47;4426004;32;34553;-77
2022/11/04 02:43:21;;;;;;;41.83;20.52;;;;;;;12.08;85.90;99515.50;4430718;32;33304;-77
2022/11/04 02:46:23;;;;;;;41.92;18.48;;;;;;;12.33;84.57;99520.69;4413990;32;34581;-78
2022/11/04 02:49:02;;;;;;;39.55;18.77;;;;;;;12.29;84.83;99518.81;4429551;32;33407;-77
2022/11/04 02:51:39;;;;;;;42.62;19.10;;;;;;;12.10;85.73;99519.03;4422449;32;34524;-79
2022/11/04 02:54:11;;;;;;;43.17;19.30;;;;;;;12.15;85.84;99518.38;4414292;32;33462;-79
2022/11/04 02:56:44;;;;;;;41.92;19.77;;;;;;;12.47;84.36;99535.84;4438669;32;33770;-78
2022/11/04 02:59:33;;;;;;;40.80;19.37;;;;;;;12.75;82.49;99535.03;4412267;32;33799;-79
2022/11/04 03:02:07;;;;;;;41.45;19.80;;;;;;;13.16;81.03;99536.31;4423119;32;33944;-76
2022/11/04 03:04:43;;;;;;;41.60;19.77;;;;;;;12.88;81.61;99533.69;4438597;32;34418;-78
2022/11/04 03:07:16;;;;;;;39.03;19.87;;;;;;;12.65;82.91;99515.69;4420947;32;34158;-79
2022/11/04 03:09:50;;;;;;;39.25;19.90;;;;;;;12.56;83.51;99504.97;4449991;32;34185;-78
2022/11/04 03:12:27;;;;;;;44.70;20.02;;;;;;;11.97;86.59;99500.44;4423864;32;709364;-77
2022/11/04 03:15:03;;;;;;;42.20;21.62;;;;;;;13.13;81.39;99497.22;4440332;32;34459;-78
2022/11/04 03:17:46;;;;;;;41.40;19.10;;;;;;;12.74;83.13;99482.16;4428495;32;34588;-78
2022/11/04 03:20:21;;;;;;;42.72;20.35;;;;;;;12.38;85.29;99474.97;4414993;32;33510;-79
2022/11/04 03:22:58;;;;;;;40.10;20.30;;;;;;;12.20;85.67;99475.25;4420278;32;33808;-79
2022/11/04 03:25:38;;;;;;;42.20;20.45;;;;;;;11.99;86.79;99467.66;4427269;32;33890;-77
2022/11/04 03:28:11;;;;;;;41.05;20.08;;;;;;;11.92;86.91;99452.69;4428299;32;34309;-78
2022/11/04 03:30:42;;;;;;;41.50;19.33;;;;;;;12.15;85.33;99455.19;4427638;32;33528;-76
2022/11/04 03:33:14;;;;;;;43.08;18.95;;;;;;;12.31;84.80;99456.56;4441908;32;33832;-78
2022/11/04 03:35:42;;;;;;;38.03;19.40;;;;;;;12.10;86.01;99465.41;4428267;32;33796;-77
2022/11/04 03:38:12;;;;;;;40.92;20.33;;;;;;;12.37;85.60;99452.44;4429793;32;34619;-78
2022/11/04 03:40:41;;;;;;;40.60;18.75;;;;;;;12.38;84.80;99454.22;4436857;32;33009;-76
2022/11/04 03:43:16;;;;;;;40.53;18.67;;;;;;;12.48;84.27;99462.28;4426764;32;35623;-78
2022/11/04 03:45:47;;;;;;;38.30;18.65;;;;;;;12.49;83.88;99461.44;4410732;32;34666;-78
2022/11/04 03:48:16;;;;;;;36.40;19.27;;;;;;;12.37;84.52;99456.75;4442898;32;33890;-78
2022/11/04 03:50:49;;;;;;;40.97;18.85;;;;;;;12.12;85.42;99465.44;4435951;32;33411;-77
2022/11/04 03:53:31;;;;;;;39.63;18.00;;;;;;;12.18;85.48;99450.94;4432689;32;34593;-77
2022/11/04 03:56:50;;;;;;;40.00;19.50;;;;;;;12.11;85.73;99445.50;4420980;32;34454;-78
2022/11/04 03:59:48;;;;;;;39.08;19.50;;;;;;;12.58;83.73;99438.34;4422932;32;32963;-76
2022/11/04 04:02:24;;;;;;;38.50;19.83;;;;;;;11.96;86.96;99413.03;4437830;32;34341;-77
2022/11/04 04:05:17;;;;;;;46.30;20.33;;;;;;;12.39;85.44;99403.12;4419276;32;33742;-78
2022/11/04 04:08:10;;;;;;;40.55;19.60;;;;;;;12.11;86.15;99406.56;4445650;32;34831;-78
2022/11/04 04:11:22;;;;;;;43.90;20.23;;;;;;;12.14;86.27;99406.66;4445290;32;34925;-78
2022/11/04 04:14:37;;;;;;;41.65;19.40;;;;;;;12.26;85.44;99412.25;4433751;32;33722;-78
2022/11/04 04:17:33;;;;;;;51.33;21.40;;;;;;;12.24;85.97;99398.31;4434784;32;34059;-78
2022/11/04 04:20:17;;;;;;;44.15;21.85;;;;;;;12.12;86.29;99397.94;4395384;32;34262;-77
2022/11/04 04:27:29;;;;;;;43.95;21.67;;;;;;;12.15;86.26;99395.47;4436549;32;33774;-78
2022/11/04 04:29:05;;;;;;;46.47;23.05;;;;;;;11.83;87.29;99408.22;4429476;32;33967;-78
2022/11/04 04:31:49;;;;;;;44.38;22.25;;;;;;;11.74;87.67;99407.91;4436924;32;33995;-78
2022/11/04 04:34:28;;;;;;;47.78;23.62;;;;;;;11.64;87.84;99408.44;4428239;32;34015;-79
2022/11/04 04:37:22;;;;;;;45.65;23.00;;;;;;;12.08;86.24;99411.66;4438118;32;33379;-78
2022/11/04 04:45:51;;;;;;;46.55;22.75;;;;;;;12.13;85.88;99390.22;4437630;32;33575;-79
2022/11/04 04:48:26;;;;;;;50.92;23.92;;;;;;;12.14;85.87;99386.78;4418900;32;34425;-77
2022/11/04 04:51:00;;;;;;;42.13;22.23;;;;;;;12.10;85.83;99389.22;4435821;32;33465;-79
2022/11/04 04:53:31;;;;;;;55.35;24.70;;;;;;;12.21;84.14;99387.88;4416749;32;33784;-79
2022/11/04 04:56:06;;;;;;;45.72;23.33;;;;;;;12.29;83.84;99386.38;4432381;32;33921;-77
2022/11/04 04:58:44;;;;;;;49.55;23.65;;;;;;;12.23;84.03;99381.00;4436552;32;33701;-79
2022/11/04 05:01:20;;;;;;;50.92;24.00;;;;;;;12.38;83.46;99396.16;4436321;32;34752;-80
2022/11/04 05:03:50;;;;;;;51.53;24.00;;;;;;;11.90;84.76;99392.06;4440893;32;33863;-79
2022/11/04 05:06:21;;;;;;;47.17;24.50;;;;;;;11.80;86.25;99384.75;4446865;32;34108;-79
2022/11/04 05:08:49;;;;;;;46.70;23.38;;;;;;;11.81;86.13;99391.72;4433410;32;33823;-77
2022/11/04 05:11:22;;;;;;;58.58;26.05;;;;;;;11.81;85.79;99382.22;4430416;32;33691;-78
2022/11/04 05:13:54;;;;;;;56.60;25.62;;;;;;;11.86;85.23;99384.97;4433962;32;33932;-79
2022/11/04 05:16:30;;;;;;;54.70;26.40;;;;;;;11.73;86.24;99385.41;4433242;32;34330;-77
2022/11/04 05:19:18;;;;;;;55.33;24.23;;;;;;;11.74;86.12;99390.66;4438765;32;33729;-77
2022/11/04 05:21:48;;;;;;;53.40;24.50;;;;;;;12.07;84.81;99389.13;4428743;32;34897;-79
2022/11/04 05:24:33;;;;;;;57.58;26.58;;;;;;;11.48;87.14;99392.34;4447780;32;33921;-78
2022/11/04 05:27:09;;;;;;;53.58;25.60;;;;;;;11.74;85.93;99389.75;4438879;32;34900;-77
2022/11/04 05:29:46;;;;;;;51.42;24.67;;;;;;;11.48;87.39;99392.34;4426603;32;33390;-76
2022/11/04 05:32:18;;;;;;;53.47;25.95;;;;;;;12.15;84.29;99385.94;4449538;32;34358;-77
2022/11/04 05:34:53;;;;;;;54.95;25.48;;;;;;;11.78;84.89;99381.22;4426333;32;31916;-74
2022/11/04 05:37:26;;;;;;;50.28;24.25;;;;;;;11.51;85.93;99376.91;4438102;32;32206;-75
2022/11/04 05:40:01;;;;;;;49.50;24.60;;;;;;;11.40;86.55;99383.44;4422073;32;34215;-75
2022/11/04 05:42:31;;;;;;;52.40;23.87;;;;;;;11.97;83.65;99383.63;4436178;32;33663;-77
2022/11/04 05:45:07;;;;;;;47.88;22.52;;;;;;;11.73;84.80;99400.97;4447877;32;33754;-76
2022/11/04 05:48:08;;;;;;;49.58;23.75;;;;;;;11.99;83.22;99402.75;4428258;32;35185;-76
2022/11/04 05:50:40;;;;;;;48.42;23.67;;;;;;;12.16;82.14;99400.69;4443471;32;32694;-77
2022/11/04 05:53:09;;;;;;;50.12;23.55;;;;;;;12.61;79.92;99396.84;4445974;32;33626;-75
2022/11/04 05:55:38;;;;;;;49.55;23.70;;;;;;;12.85;78.79;99395.84;4429045;32;34688;-75
2022/11/04 05:58:06;;;;;;;49.78;24.45;;;;;;;12.61;80.18;99396.84;4434049;32;34987;-75
2022/11/04 06:00:35;;;;;;;53.05;24.85;;;;;;;12.15;81.24;99385.94;4439871;32;33730;-75
2022/11/04 06:03:03;;;;;;;52.13;25.37;;;;;;;12.30;80.92;99400.25;4443700;32;33536;-78
2022/11/04 06:05:32;;;;;;;50.25;25.20;;;;;;;12.47;80.74;99390.38;4439193;32;33574;-76
2022/11/04 06:07:59;;;;;;;53.78;25.62;;;;;;;12.24;82.04;99395.72;4426294;32;33861;-75
2022/11/04 06:10:28;;;;;;;54.80;27.67;;;;;;;11.92;82.97;99403.38;4430428;32;33279;-78
2022/11/04 06:12:57;;;;;;;53.78;26.40;;;;;;;11.43;85.70;99393.88;4447740;32;32208;-76
2022/11/04 06:15:29;;;;;;;56.65;26.35;;;;;;;11.16;87.41;99394.72;4431356;32;33646;-77
2022/11/04 06:17:57;;;;;;;58.50;26.73;;;;;;;11.29;86.34;99390.81;4429399;32;34692;-78
2022/11/04 06:20:26;;;;;;;51.78;25.98;;;;;;;11.23;87.16;99389.75;4430847;32;33770;-78
2022/11/04 06:22:55;;;;;;;50.20;24.00;;;;;;;11.44;86.15;99392.22;4429221;32;33588;-78
2022/11/04 06:25:24;;;;;;;54.28;24.12;;;;;;;11.16;87.16;99392.13;4436249;32;33725;-78
2022/11/04 06:27:53;;;;;;;54.60;23.55;;;;;;;11.70;85.07;99393.06;4432760;32;33881;-78
2022/11/04 06:30:22;;;;;;;58.22;28.15;;;;;;;11.42;86.02;99392.16;4431455;32;34313;-78
2022/11/04 06:32:50;;;;;;;56.92;26.05;;;;;;;11.63;84.91;99404.06;4438822;32;34500;-76
2022/11/04 06:35:18;;;;;;;58.75;27.05;;;;;;;11.30;86.41;99396.88;4429579;32;32574;-79
2022/11/04 06:37:47;;;;;;;64.20;27.52;;;;;;;11.26;87.18;99405.38;4435809;32;34530;-76
2022/11/04 06:40:16;;;;;;;56.22;26.08;;;;;;;11.48;85.79;99407.91;4433772;32;32347;-78
2022/11/04 06:42:45;;;;;;;53.55;23.73;;;;;;;10.94;88.55;99407.72;4447773;32;34577;-78
2022/11/04 06:45:16;;;;;;;48.25;23.95;;;;;;;11.05;87.79;99403.81;4435791;32;34648;-78
2022/11/04 06:47:45;;;;;;;56.72;24.92;;;;;;;11.24;86.87;99409.62;4443138;32;34109;-76
2022/11/04 06:50:16;;;;;;;57.03;26.40;;;;;;;11.41;85.65;99395.56;4439103;32;33472;-75
2022/11/04 06:52:44;;;;;;;61.00;26.45;;;;;;;11.30;86.68;99402.06;4439742;32;34119;-77
2022/11/04 06:55:11;;;;;;;56.78;26.25;;;;;;;11.49;85.81;99398.41;4438774;32;33969;-75
2022/11/04 06:57:40;;;;;;;61.63;27.75;;;;;;;11.66;85.24;99401.59;4429406;32;34610;-76
2022/11/04 07:00:10;;;;;;;57.22;26.70;;;;;;;11.90;84.13;99411.94;4435492;32;34379;-76
2022/11/04 07:02:40;;;;;;;58.92;28.98;;;;;;;12.20;82.41;99397.34;4418311;32;34912;-77
2022/11/04 07:05:11;;;;;;;60.75;28.45;;;;;;;11.90;83.22;99402.44;4433211;32;33907;-76
2022/11/04 07:07:39;;;;;;;59.42;27.60;;;;;;;11.64;84.94;99398.94;4428856;32;33877;-75
2022/11/04 07:10:09;;;;;;;65.18;28.48;;;;;;;11.46;85.51;99412.16;4439079;32;33416;-74
2022/11/04 07:12:38;;;;;;;62.67;27.42;;;;;;;11.50;85.85;99411.44;4442079;32;34388;-74
2022/11/04 07:15:08;;;;;;;60.85;27.70;;;;;;;12.12;82.86;99413.53;4421212;32;33775;-74
2022/11/04 07:17:38;;;;;;;57.80;27.87;;;;;;;11.68;84.29;99410.31;4422142;32;33902;-77
2022/11/04 07:20:07;;;;;;;61.03;28.65;;;;;;;11.95;82.68;99405.19;4448465;32;33989;-75
2022/11/04 07:22:35;;;;;;;56.65;27.50;;;;;;;11.76;84.11;99406.25;4435682;32;33877;-76
2022/11/04 07:25:05;;;;;;;60.00;27.05;;;;;;;12.22;82.07;99407.78;4444837;32;34484;-76
2022/11/04 07:27:34;;;;;;;56.55;26.48;;;;;;;12.04;82.48;99399.44;4440667;32;35040;-77
2022/11/04 07:30:02;;;;;;;56.70;25.88;;;;;;;12.16;81.53;99405.87;4436227;32;34522;-75
2022/11/04 07:32:31;;;;;;;61.53;26.67;;;;;;;11.81;82.86;99409.88;4437021;32;33538;-74
2022/11/04 07:35:02;;;;;;;62.28;25.00;;;;;;;11.94;82.46;99404.31;4433562;32;33823;-75
2022/11/04 07:37:32;;;;;;;58.83;26.30;;;;;;;12.21;81.34;99413.84;4435609;32;34957;-74
2022/11/04 07:39:59;;;;;;;68.07;27.62;;;;;;;11.99;82.02;99413.16;4439627;32;33674;-76
2022/11/04 07:42:28;;;;;;;55.05;26.98;;;;;;;12.04;81.77;99407.22;4431163;32;33904;-76
2022/11/04 07:44:56;;;;;;;59.92;26.60;;;;;;;11.81;82.22;99402.09;4429548;32;33956;-74
2022/11/04 07:47:29;;;;;;;56.13;26.83;;;;;;;11.78;82.42;99396.81;4427285;32;33764;-74
2022/11/04 07:49:58;;;;;;;54.60;24.95;;;;;;;12.12;80.57;99397.94;4421105;32;33529;-75
2022/11/04 07:52:32;;;;;;;57.92;27.42;;;;;;;11.80;81.91;99401.22;4423592;32;33879;-74
2022/11/04 07:54:59;;;;;;;55.05;27.15;;;;;;;11.42;83.77;99389.56;4429901;32;34051;-74
2022/11/04 07:57:29;;;;;;;51.40;27.42;;;;;;;11.84;81.64;99386.66;4426298;32;34506;-75
2022/11/04 07:59:58;;;;;;;52.95;25.40;;;;;;;11.89;80.81;99389.38;4432928;32;33367;-76
2022/11/04 08:02:28;;;;;;;50.67;25.20;;;;;;;11.97;80.68;99393.13;4432523;32;34456;-77
2022/11/04 08:05:05;;;;;;;51.78;24.37;;;;;;;11.87;80.57;99386.72;4426386;32;33615;-74
2022/11/04 08:07:34;;;;;;;62.62;27.83;;;;;;;11.88;81.88;99378.13;4436951;32;33655;-76
2022/11/04 08:10:04;;;;;;;53.75;26.58;;;;;;;11.92;81.06;99380.03;4435626;32;33442;-76
2022/11/04 08:12:33;;;;;;;49.95;25.45;;;;;;;12.14;80.70;99385.91;4443089;32;33347;-74
2022/11/04 08:15:01;;;;;;;53.87;26.75;;;;;;;12.15;80.37;99385.09;4445023;32;33647;-75
2022/11/04 08:17:32;;;;;;;54.05;26.20;;;;;;;11.88;81.05;99366.84;4440998;32;34177;-74
2022/11/04 08:20:01;;;;;;;54.90;27.00;;;;;;;12.06;80.50;99377.00;4430480;32;33504;-76
2022/11/04 08:22:30;;;;;;;56.30;27.30;;;;;;;12.35;78.76;99383.97;4448036;32;33589;-75
2022/11/04 08:25:01;;;;;;;53.03;26.23;;;;;;;12.10;79.67;99373.66;4423676;32;34690;-76
2022/11/04 08:27:31;;;;;;;51.00;27.02;;;;;;;12.21;79.14;99372.28;4445237;32;33801;-74
2022/11/04 08:30:02;;;;;;;58.58;27.80;;;;;;;12.06;79.73;99361.41;4435872;32;34236;-76
2022/11/04 08:32:30;;;;;;;50.60;25.88;;;;;;;12.18;79.39;99367.84;4440545;32;33567;-74
2022/11/04 08:34:59;;;;;;;53.47;28.15;;;;;;;12.50;78.16;99359.31;4444359;32;34415;-74
2022/11/04 08:37:29;;;;;;;62.33;28.27;;;;;;;12.71;77.22;99370.34;4446502;32;34749;-74
2022/11/04 08:40:00;;;;;;;56.50;27.85;;;;;;;12.51;77.12;99366.25;4439353;32;33455;-74
2022/11/04 08:42:28;;;;;;;57.92;29.83;;;;;;;12.17;78.64;99357.44;4449689;32;33877;-74
2022/11/04 08:44:56;;;;;;;57.90;30.05;;;;;;;12.62;77.16;99358.78;4444883;32;34437;-76
2022/11/04 08:47:25;;;;;;;59.58;30.00;;;;;;;12.20;78.51;99357.53;4441964;32;33886;-74
2022/11/04 08:49:56;;;;;;;58.90;32.30;;;;;;;12.41;78.00;99359.03;4444859;32;33645;-76
2022/11/04 08:52:24;;;;;;;59.35;29.90;;;;;;;12.45;77.84;99350.50;4440507;32;34835;-75
2022/11/04 08:54:53;;;;;;;57.20;29.85;;;;;;;12.25;78.50;99342.97;4445861;32;33741;-73
2022/11/04 08:57:24;;;;;;;53.53;29.02;;;;;;;12.28;78.41;99343.06;4419195;32;34105;-75
2022/11/04 08:59:54;;;;;;;55.88;29.80;;;;;;;12.38;77.79;99352.00;4432553;32;34194;-76
2022/11/04 09:02:24;;;;;;;50.12;27.08;;;;;;;12.35;77.92;99345.00;4433791;32;34545;-76
2022/11/04 09:04:54;;;;;;;58.05;28.73;;;;;;;12.63;77.46;99335.44;4441050;32;35061;-76
2022/11/04 09:07:24;;;;;;;58.28;29.65;;;;;;;12.42;77.98;99330.50;4440239;32;34215;-75
2022/11/04 09:09:52;;;;;;;57.90;28.75;;;;;;;12.64;77.35;99321.63;4439524;32;33512;-76
2022/11/04 09:12:22;;;;;;;58.08;29.00;;;;;;;12.15;79.80;99317.56;4438349;32;34807;-76
2022/11/04 09:14:50;;;;;;;54.20;29.95;;;;;;;12.17;80.47;99315.91;4447365;32;33730;-76
2022/11/04 09:17:18;;;;;;;54.20;27.80;;;;;;;12.20;79.86;99332.44;4448530;32;34248;-76
2022/11/04 09:19:46;;;;;;;53.45;27.23;;;;;;;12.42;78.99;99327.00;4426065;32;33835;-76
2022/11/04 09:22:14;;;;;;;52.92;26.52;;;;;;;12.23;79.13;99328.16;4437961;32;33635;-75
2022/11/04 09:24:42;;;;;;;54.65;28.23;;;;;;;12.34;78.69;99327.69;4432545;32;34747;-77
2022/11/04 09:27:11;;;;;;;50.25;26.55;;;;;;;12.16;78.96;99322.78;4440243;32;34613;-75
2022/11/04 09:29:40;;;;;;;55.35;28.90;;;;;;;12.17;79.33;99318.50;4449664;32;33528;-76
2022/11/04 09:32:09;;;;;;;52.25;27.73;;;;;;;12.23;79.21;99322.97;4440819;32;32760;-75
2022/11/04 09:34:39;;;;;;;59.78;28.27;;;;;;;12.51;77.54;99322.09;4433044;32;34642;-76
2022/11/04 09:37:08;;;;;;;55.30;27.67;;;;;;;11.65;81.56;99306.41;4429870;32;33822;-77
2022/11/04 09:39:37;;;;;;;51.33;25.60;;;;;;;11.86;81.27;99307.13;4438397;32;34930;-76
2022/11/04 09:42:20;;;;;;;55.53;27.95;;;;;;;12.15;79.83;99302.00;4433404;32;34499;-77
2022/11/04 09:44:53;;;;;;;53.60;28.38;;;;;;;12.03;80.37;99306.78;4431774;32;33127;-75
2022/11/04 09:47:47;;;;;;;51.93;26.13;;;;;;;12.39;78.90;99297.50;4408755;32;33921;-78
2022/11/04 09:50:23;;;;;;;55.17;29.63;;;;;;;12.02;80.07;99286.88;4414312;32;33506;-76
2022/11/04 09:52:57;;;;;;;54.90;28.48;;;;;;;12.24;79.66;99278.00;4420742;32;33502;-76
2022/11/04 09:55:40;;;;;;;58.08;28.95;;;;;;;11.99;81.56;99267.78;4432102;32;33750;-75
2022/11/04 09:58:13;;;;;;;51.58;28.35;;;;;;;12.03;82.03;99267.84;4435451;32;34255;-76
2022/11/04 10:00:48;;;;;;;59.63;32.42;;;;;;;11.49;84.48;99258.34;4421282;32;31902;-77
2022/11/04 10:03:20;;;;;;;65.65;32.88;;;;;;;11.68;84.25;99254.63;4430085;32;32398;-76
2022/11/04 10:06:18;;;;;;;55.53;28.27;;;;;;;11.94;83.29;99253.78;4432748;32;33995;-76
2022/11/04 10:08:55;;;;;;;58.00;31.00;;;;;;;12.27;82.03;99250.41;4429763;32;34146;-74
2022/11/04 10:11:30;;;;;;;58.47;30.70;;;;;;;12.21;82.19;99242.47;4435023;32;33578;-76
2022/11/04 10:18:24;;;;;;;51.88;30.05;;;;;;;12.18;81.63;99242.34;4426744;32;35200;-76
2022/11/04 10:21:05;;;;;;;54.95;28.25;;;;;;;12.34;80.99;99248.88;4425895;32;34891;-75
2022/11/04 10:23:49;;;;;;;56.15;27.00;;;;;;;11.99;82.20;99241.81;4425108;32;33450;-76
2022/11/04 10:26:30;;;;;;;54.13;29.13;;;;;;;11.85;82.76;99237.88;4432618;32;32572;-75
2022/11/04 10:29:12;;;;;;;56.15;28.77;;;;;;;11.94;82.76;99240.78;4427223;32;33720;-76
2022/11/04 10:31:43;;;;;;;58.58;28.30;;;;;;;12.31;81.40;99243.59;4437095;32;33495;-76
2022/11/04 10:34:33;;;;;;;53.28;28.60;;;;;;;12.36;80.93;99242.00;4437776;32;33439;-76
2022/11/04 10:37:03;;;;;;;56.63;28.73;;;;;;;12.18;82.07;99242.34;4428044;32;34516;-76
2022/11/04 10:39:38;;;;;;;53.63;28.75;;;;;;;11.89;83.75;99234.56;4437497;32;34628;-76
2022/11/04 10:42:10;;;;;;;56.70;30.02;;;;;;;12.04;83.70;99222.91;4425964;32;34897;-76
2022/11/04 10:44:40;;;;;;;58.70;30.50;;;;;;;11.97;84.02;99222.69;4446596;32;33389;-76
2022/11/04 10:47:31;;;;;;;56.63;30.52;;;;;;;11.79;85.18;99211.75;4433323;32;34577;-76
2022/11/04 10:50:26;;;;;;;60.08;31.02;;;;;;;12.04;84.40;99208.19;4437343;32;33704;-77
2022/11/04 10:53:18;;;;;;;52.47;28.23;;;;;;;12.16;83.56;99202.47;4421900;32;34845;-76
2022/11/04 10:55:49;;;;;;;58.85;29.70;;;;;;;12.04;84.04;99212.53;4438758;32;33446;-75
2022/11/04 10:58:28;;;;;;;57.75;29.87;;;;;;;11.62;86.52;99211.22;4438316;32;34794;-75
2022/11/04 11:00:58;;;;;;;57.35;29.05;;;;;;;11.98;85.07;99205.44;4420845;32;33891;-76
2022/11/04 11:03:34;;;;;;;53.58;30.20;;;;;;;12.24;83.87;99200.97;4420294;32;33304;-76
2022/11/04 11:06:36;;;;;;;57.40;29.33;;;;;;;12.12;84.10;99198.91;4434128;32;32178;-76
2022/11/04 11:09:12;;;;;;;57.83;29.63;;;;;;;11.87;85.99;99197.28;4425899;32;33651;-76
2022/11/04 11:11:49;;;;;;;54.45;29.83;;;;;;;12.15;84.24;99200.75;4439265;32;33510;-77
2022/11/04 11:14:27;;;;;;;49.15;28.27;;;;;;;12.08;84.23;99210.06;4444241;32;33783;-77
2022/11/04 11:17:14;;;;;;;57.42;29.15;;;;;;;12.33;83.46;99206.44;4437206;32;34306;-77
2022/11/04 11:19:49;;;;;;;55.53;29.08;;;;;;;12.25;83.80;99210.53;4428292;32;33613;-76
2022/11/04 11:22:30;;;;;;;55.42;28.20;;;;;;;12.27;83.36;99210.59;4435185;32;33725;-76
2022/11/04 11:25:27;;;;;;;52.28;27.83;;;;;;;12.38;83.32;99210.06;4435866;32;34212;-77
2022/11/04 11:28:03;;;;;;;50.95;27.87;;;;;;;12.53;82.32;99198.31;4410789;32;33057;-76
2022/11/04 11:30:40;;;;;;;53.80;29.08;;;;;;;13.01;80.49;99191.78;4432798;32;33821;-76
2022/11/04 11:33:31;;;;;;;53.80;29.75;;;;;;;12.46;82.49;99183.38;4431340;32;32504;-76
2022/11/04 11:36:14;;;;;;;52.72;28.30;;;;;;;12.72;81.58;99182.38;4433225;32;34392;-75
2022/11/04 11:38:56;;;;;;;59.15;30.42;;;;;;;12.51;82.35;99187.00;4427658;32;34188;-76
2022/11/04 11:41:30;;;;;;;54.15;29.50;;;;;;;12.59;82.15;99182.88;4429287;32;34926;-76
2022/11/04 11:44:19;;;;;;;54.75;31.23;;;;;;;12.64;81.87;99180.44;4426757;32;33750;-75
2022/11/04 11:46:55;;;;;;;53.47;30.60;;;;;;;12.69;82.49;99171.00;4431918;32;33813;-76
2022/11/04 11:49:27;;;;;;;55.67;31.37;;;;;;;12.77;81.35;99173.00;4424502;32;35225;-75
2022/11/04 11:52:27;;;;;;;55.57;30.53;;;;;;;12.45;82.74;99163.47;4426983;32;33544;-76
2022/11/04 11:55:06;;;;;;;57.33;30.92;;;;;;;12.53;82.73;99167.12;4412472;32;33355;-76
2022/11/04 11:57:48;;;;;;;58.65;32.22;;;;;;;12.81;81.17;99144.50;4425059;32;33662;-76
2022/11/04 12:01:10;;;;;;;60.63;31.02;;;;;;;12.38;83.43;99137.34;4422955;32;34374;-76
2022/11/04 12:03:52;;;;;;;63.20;33.35;;;;;;;12.70;82.05;99141.59;4427090;32;33428;-75
2022/11/04 12:07:15;;;;;;;57.10;31.37;;;;;;;12.53;82.76;99136.84;4426438;32;34109;-75
2022/11/04 12:10:48;;;;;;;61.40;32.40;;;;;;;12.35;83.77;99125.97;4431644;32;34127;-75
2022/11/04 12:13:36;;;;;;;65.05;33.22;;;;;;;12.25;84.33;99116.19;4385549;32;32215;-75
2022/11/04 12:16:09;;;;;;;67.32;34.72;;;;;;;12.54;82.99;99111.75;4400192;32;33975;-75
2022/11/04 12:18:57;;;;;;;63.28;34.00;;;;;;;12.55;83.19;99103.13;4432209;32;34376;-75
2022/11/04 12:21:32;;;;;;;61.17;32.47;;;;;;;12.64;83.00;99108.53;4429174;32;34011;-76
2022/11/04 12:24:26;;;;;;;62.97;33.38;;;;;;;12.58;83.41;99100.59;4433264;32;32578;-75
2022/11/04 12:27:06;;;;;;;69.03;34.60;;;;;;;12.60;82.99;99091.12;4435614;32;34499;-75
2022/11/04 12:30:03;;;;;;;66.80;34.45;;;;;;;12.71;82.82;99079.28;4440940;32;33680;-75